createdAt,value
2023-03-29T00:01:01.443Z,14.07
2023-03-29T00:03:30.607Z,13.70
2023-03-29T00:06:03.008Z,13.78
2023-03-29T00:08:33.902Z,14.46
2023-03-29T00:11:03.077Z,13.41
2023-03-29T00:13:31.027Z,13.48
2023-03-29T00:15:58.663Z,13.73
2023-03-29T00:18:26.397Z,13.75
2023-03-29T00:20:57.089Z,14.19
2023-03-29T00:23:25.004Z,13.89
2023-03-29T00:25:53.734Z,14.00
2023-03-29T00:28:22.822Z,14.36
2023-03-29T00:30:51.276Z,13.96
2023-03-29T00:33:20.435Z,13.94
2023-03-29T00:35:48.330Z,13.89
2023-03-29T00:38:16.313Z,13.86
2023-03-29T00:40:44.573Z,13.50
2023-03-29T00:43:12.686Z,13.71
2023-03-29T00:45:42.177Z,13.56
2023-03-29T00:48:10.246Z,13.49
2023-03-29T00:50:39.374Z,13.08
2023-03-29T00:53:08.000Z,13.16
2023-03-29T00:55:36.447Z,13.51
2023-03-29T00:58:04.400Z,13.69
2023-03-29T01:00:32.784Z,13.56
2023-03-29T01:03:01.945Z,13.69
2023-03-29T01:05:30.916Z,13.40
2023-03-29T01:07:59.619Z,13.85
2023-03-29T01:10:28.358Z,13.22
2023-03-29T01:12:57.532Z,12.85
2023-03-29T01:15:26.510Z,12.38
2023-03-29T01:17:55.540Z,13.31
2023-03-29T01:20:26.170Z,12.90
2023-03-29T01:23:01.697Z,12.72
2023-03-29T01:25:32.152Z,12.98
2023-03-29T01:28:02.343Z,12.78
2023-03-29T01:30:30.796Z,13.33
2023-03-29T01:32:59.157Z,13.13
2023-03-29T01:35:28.616Z,13.39
2023-03-29T01:37:57.686Z,12.95
2023-03-29T01:40:27.254Z,12.95
2023-03-29T01:42:58.288Z,13.12
2023-03-29T01:45:27.922Z,13.91
2023-03-29T01:47:56.222Z,13.43
2023-03-29T01:50:26.145Z,13.41
2023-03-29T01:52:55.043Z,12.63
2023-03-29T01:55:23.578Z,12.72
2023-03-29T01:57:52.082Z,12.98
2023-03-29T02:00:20.221Z,12.91
2023-03-29T02:02:49.266Z,12.66
2023-03-29T02:05:17.074Z,12.92
2023-03-29T02:07:44.827Z,12.40
2023-03-29T02:10:13.004Z,13.01
2023-03-29T02:12:42.207Z,14.57
2023-03-29T02:15:12.351Z,13.35
2023-03-29T02:17:40.127Z,13.73
2023-03-29T02:20:14.262Z,13.61
2023-03-29T02:22:44.046Z,13.58
2023-03-29T02:25:12.865Z,13.58
2023-03-29T02:27:40.815Z,13.82
2023-03-29T02:30:09.062Z,13.27
2023-03-29T02:32:38.017Z,13.79
2023-03-29T02:35:06.910Z,13.60
2023-03-29T02:37:36.328Z,14.16
2023-03-29T02:40:08.670Z,13.36
2023-03-29T02:42:37.001Z,13.22
2023-03-29T02:45:05.599Z,13.10
2023-03-29T02:47:33.614Z,12.90
2023-03-29T02:50:01.384Z,12.75
2023-03-29T02:52:33.410Z,13.03
2023-03-29T02:55:03.057Z,12.58
2023-03-29T02:57:32.469Z,12.92
2023-03-29T03:00:00.156Z,12.83
2023-03-29T03:02:28.065Z,12.21
2023-03-29T03:04:57.481Z,12.18
2023-03-29T03:07:25.909Z,12.50
2023-03-29T03:09:53.590Z,12.13
2023-03-29T03:12:22.722Z,13.66
2023-03-29T03:14:50.336Z,13.11
2023-03-29T03:17:18.729Z,12.57
2023-03-29T03:19:48.102Z,12.26
2023-03-29T03:22:15.774Z,12.80
2023-03-29T03:24:43.836Z,12.15
2023-03-29T03:27:12.414Z,12.00
2023-03-29T03:29:42.130Z,11.64
2023-03-29T03:32:09.860Z,11.95
2023-03-29T03:34:58.582Z,11.75
2023-03-29T03:37:27.473Z,12.15
2023-03-29T03:39:55.608Z,12.80
2023-03-29T03:42:24.918Z,12.85
2023-03-29T03:44:57.228Z,12.36
2023-03-29T03:47:44.508Z,12.29
2023-03-29T03:50:33.163Z,12.65
2023-03-29T03:53:01.458Z,12.59
2023-03-29T03:55:42.784Z,12.56
2023-03-29T03:58:14.747Z,12.11
2023-03-29T04:00:44.664Z,11.29
2023-03-29T04:03:27.056Z,11.91
2023-03-29T04:05:54.852Z,12.09
2023-03-29T04:08:27.190Z,12.47
2023-03-29T04:11:10.443Z,12.15
2023-03-29T04:13:41.545Z,11.36
2023-03-29T04:16:42.899Z,12.10
2023-03-29T04:19:30.475Z,12.14
2023-03-29T04:21:58.158Z,12.69
2023-03-29T04:24:26.033Z,11.99
2023-03-29T04:27:16.266Z,11.57
2023-03-29T04:29:44.807Z,12.10
2023-03-29T04:32:24.725Z,12.15
2023-03-29T04:35:05.719Z,11.94
2023-03-29T04:37:33.673Z,11.47
2023-03-29T04:40:02.484Z,12.10
2023-03-29T04:42:37.282Z,12.20
2023-03-29T04:45:06.897Z,12.53
2023-03-29T04:47:54.489Z,13.04
2023-03-29T04:50:22.180Z,12.64
2023-03-29T04:52:50.763Z,13.03
2023-03-29T04:55:18.534Z,12.24
2023-03-29T04:57:56.757Z,13.00
2023-03-29T05:00:31.580Z,12.54
2023-03-29T05:03:22.028Z,12.40
2023-03-29T05:05:56.018Z,12.24
2023-03-29T05:08:24.064Z,12.08
2023-03-29T05:11:13.568Z,11.95
2023-03-29T05:13:42.554Z,13.71
2023-03-29T05:16:11.301Z,12.49
2023-03-29T05:18:41.240Z,12.36
2023-03-29T05:21:09.595Z,12.52
2023-03-29T05:23:39.604Z,12.61
2023-03-29T05:26:26.504Z,12.37
2023-03-29T05:28:55.557Z,12.81
2023-03-29T05:31:23.713Z,12.11
2023-03-29T05:33:56.233Z,11.78
2023-03-29T05:36:24.712Z,11.67
2023-03-29T05:38:52.626Z,12.57
2023-03-29T05:41:22.757Z,12.93
2023-03-29T05:43:56.208Z,12.73
2023-03-29T05:46:26.165Z,12.71
2023-03-29T05:48:58.504Z,13.43
2023-03-29T05:51:41.960Z,13.16
2023-03-29T05:54:09.891Z,12.99
2023-03-29T05:56:37.632Z,13.62
2023-03-29T05:59:05.477Z,13.49
2023-03-29T06:01:33.602Z,13.69
2023-03-29T06:04:07.355Z,13.19
2023-03-29T06:06:45.457Z,13.32
2023-03-29T06:09:13.297Z,13.05
2023-03-29T06:11:49.323Z,13.57
2023-03-29T06:14:32.564Z,14.28
2023-03-29T06:17:11.219Z,13.19
2023-03-29T06:19:40.557Z,13.41
2023-03-29T06:22:08.427Z,13.06
2023-03-29T06:24:36.482Z,13.36
2023-03-29T06:27:11.235Z,12.86
2023-03-29T06:29:51.403Z,13.85
2023-03-29T06:32:20.012Z,13.23
2023-03-29T06:34:58.719Z,13.59
2023-03-29T06:37:31.914Z,13.55
2023-03-29T06:40:13.167Z,14.33
2023-03-29T06:42:45.342Z,13.83
2023-03-29T06:45:36.681Z,14.34
2023-03-29T06:48:09.423Z,14.12
2023-03-29T06:50:38.707Z,13.87
2023-03-29T06:53:11.867Z,13.87
2023-03-29T06:55:41.264Z,13.99
2023-03-29T06:58:27.949Z,14.65
2023-03-29T07:01:08.570Z,14.29
2023-03-29T07:03:54.242Z,16.19
2023-03-29T07:06:29.441Z,14.33
2023-03-29T07:08:59.788Z,15.35
2023-03-29T07:11:52.340Z,14.92
2023-03-29T07:14:28.805Z,15.76
2023-03-29T07:16:58.696Z,16.24
2023-03-29T07:19:35.772Z,16.94
2023-03-29T07:22:12.019Z,19.83
2023-03-29T07:24:51.055Z,16.79
2023-03-29T07:27:19.600Z,18.12
2023-03-29T07:29:50.786Z,18.41
2023-03-29T07:32:20.975Z,17.50
2023-03-29T07:35:08.923Z,17.27
2023-03-29T07:37:45.916Z,17.28
2023-03-29T07:40:19.508Z,18.41
2023-03-29T07:43:00.230Z,16.69
2023-03-29T07:45:35.389Z,16.47
2023-03-29T07:48:20.635Z,19.45
2023-03-29T07:50:55.015Z,16.92
2023-03-29T07:53:30.473Z,17.29
2023-03-29T07:56:00.281Z,17.29
2023-03-29T07:58:50.778Z,18.05
2023-03-29T08:01:20.416Z,17.36
2023-03-29T08:04:12.586Z,18.70
2023-03-29T08:07:00.472Z,16.47
2023-03-29T08:09:45.021Z,18.60
2023-03-29T08:12:13.162Z,17.63
2023-03-29T08:14:40.920Z,18.46
2023-03-29T08:17:16.905Z,18.45
2023-03-29T08:19:51.260Z,16.51
2023-03-29T08:22:24.735Z,18.00
2023-03-29T08:25:23.042Z,18.87
2023-03-29T08:27:54.061Z,19.26
2023-03-29T08:30:41.288Z,18.34
2023-03-29T08:33:09.092Z,18.48
2023-03-29T08:35:37.478Z,19.02
2023-03-29T08:38:19.134Z,18.24
2023-03-29T08:40:49.967Z,20.75
2023-03-29T08:43:28.572Z,20.81
2023-03-29T08:46:18.169Z,20.67
2023-03-29T08:48:46.837Z,19.75
2023-03-29T08:51:21.447Z,19.79
2023-03-29T08:53:52.825Z,17.43
2023-03-29T08:56:34.382Z,19.41
2023-03-29T08:59:20.823Z,19.05
2023-03-29T09:01:50.248Z,18.41
2023-03-29T09:04:18.764Z,19.21
2023-03-29T09:07:12.570Z,19.50
2023-03-29T09:09:48.003Z,20.59
2023-03-29T09:12:30.814Z,20.04
2023-03-29T09:15:06.628Z,19.09
2023-03-29T09:17:37.988Z,19.29
2023-03-29T09:20:13.700Z,19.15
2023-03-29T09:22:43.454Z,19.01
2023-03-29T09:25:13.256Z,18.45
2023-03-29T09:27:47.404Z,18.57
2023-03-29T09:30:26.987Z,19.92
2023-03-29T09:32:58.571Z,19.58
2023-03-29T09:35:35.671Z,18.90
2023-03-29T09:38:03.440Z,20.02
2023-03-29T09:40:32.586Z,22.32
2023-03-29T09:43:11.447Z,20.31
2023-03-29T09:45:39.431Z,20.10
2023-03-29T09:48:08.036Z,21.77
2023-03-29T09:50:37.860Z,21.79
2023-03-29T09:53:09.086Z,17.34
2023-03-29T09:55:40.727Z,20.21
2023-03-29T09:58:31.623Z,21.81
2023-03-29T10:00:59.697Z,20.45
2023-03-29T10:03:28.571Z,20.93
2023-03-29T10:06:12.193Z,19.85
2023-03-29T10:08:45.650Z,21.02
2023-03-29T10:11:14.109Z,23.00
2023-03-29T10:13:47.110Z,22.10
2023-03-29T10:16:20.013Z,21.97
2023-03-29T10:18:50.075Z,20.96
2023-03-29T10:21:20.132Z,21.82
2023-03-29T10:23:48.261Z,21.77
2023-03-29T10:26:22.817Z,21.41
2023-03-29T10:28:52.735Z,20.86
2023-03-29T10:31:21.229Z,20.21
2023-03-29T10:33:51.734Z,21.02
2023-03-29T10:36:19.440Z,22.14
2023-03-29T10:38:47.505Z,21.70
2023-03-29T10:41:15.810Z,21.01
2023-03-29T10:43:44.235Z,21.28
2023-03-29T10:46:14.403Z,21.04
2023-03-29T10:48:46.289Z,21.48
2023-03-29T10:51:14.711Z,21.07
2023-03-29T10:53:42.425Z,20.63
2023-03-29T10:56:15.820Z,19.29
2023-03-29T10:58:47.086Z,21.30
2023-03-29T11:01:17.422Z,21.73
2023-03-29T11:03:55.416Z,23.59
2023-03-29T11:06:24.171Z,21.51
2023-03-29T11:08:53.650Z,21.07
2023-03-29T11:11:26.311Z,20.23
2023-03-29T11:13:56.171Z,22.54
2023-03-29T11:16:28.576Z,20.72
2023-03-29T11:19:23.395Z,24.61
2023-03-29T11:21:52.487Z,21.91
2023-03-29T11:24:30.625Z,22.27
2023-03-29T11:27:01.307Z,22.02
2023-03-29T11:29:29.517Z,23.84
2023-03-29T11:31:59.945Z,23.13
2023-03-29T11:34:29.569Z,19.12
2023-03-29T11:36:58.694Z,20.80
2023-03-29T11:39:29.684Z,20.86
2023-03-29T11:41:57.589Z,21.63
2023-03-29T11:44:25.751Z,22.59
2023-03-29T11:46:54.908Z,23.52
2023-03-29T11:49:24.510Z,21.68
2023-03-29T11:51:54.304Z,23.52
2023-03-29T11:54:23.098Z,25.34
2023-03-29T11:56:52.183Z,21.47
2023-03-29T11:59:22.203Z,22.35
2023-03-29T12:01:50.606Z,22.80
2023-03-29T12:04:22.771Z,22.48
2023-03-29T12:06:54.014Z,22.69
2023-03-29T12:09:26.647Z,22.28
2023-03-29T12:11:55.964Z,24.35
2023-03-29T12:14:26.661Z,22.56
2023-03-29T12:16:56.019Z,25.12
2023-03-29T12:19:24.398Z,23.62
2023-03-29T12:21:54.491Z,25.24
2023-03-29T12:24:23.018Z,25.21
2023-03-29T12:26:54.341Z,21.46
2023-03-29T12:29:27.661Z,23.54
2023-03-29T12:31:56.710Z,23.18
2023-03-29T12:34:34.132Z,23.22
2023-03-29T12:37:42.346Z,23.37
2023-03-29T12:40:13.764Z,23.21
2023-03-29T12:43:01.223Z,23.72
2023-03-29T12:46:07.011Z,23.47
2023-03-29T12:48:34.797Z,21.39
2023-03-29T12:51:03.033Z,21.32
2023-03-29T12:53:34.115Z,22.32
2023-03-29T12:56:09.516Z,22.49
2023-03-29T12:58:44.289Z,22.47
2023-03-29T13:01:24.098Z,21.09
2023-03-29T13:03:52.869Z,22.70
2023-03-29T13:06:31.431Z,22.41
2023-03-29T13:09:01.446Z,23.79
2023-03-29T13:11:30.295Z,22.93
2023-03-29T13:13:58.337Z,22.99
2023-03-29T13:16:30.025Z,23.71
2023-03-29T13:19:01.284Z,22.34
2023-03-29T13:21:31.310Z,21.01
2023-03-29T13:24:02.449Z,23.47
2023-03-29T13:26:49.129Z,22.13
2023-03-29T13:29:23.238Z,21.16
2023-03-29T13:31:52.730Z,22.30
2023-03-29T13:34:24.044Z,21.95
2023-03-29T13:36:55.088Z,21.12
2023-03-29T13:39:24.569Z,22.30
2023-03-29T13:41:53.187Z,23.47
2023-03-29T13:44:29.623Z,22.63
2023-03-29T13:47:04.722Z,23.06
2023-03-29T13:49:32.524Z,23.36
2023-03-29T13:52:03.391Z,23.11
2023-03-29T13:54:33.764Z,22.62
2023-03-29T13:57:03.017Z,22.53
2023-03-29T13:59:33.230Z,23.50
2023-03-29T14:02:02.784Z,23.10
2023-03-29T14:04:31.792Z,21.67
2023-03-29T14:06:59.476Z,22.78
2023-03-29T14:09:29.964Z,22.99
2023-03-29T14:11:59.082Z,22.44
2023-03-29T14:14:27.421Z,21.07
2023-03-29T14:16:55.972Z,23.48
2023-03-29T14:19:25.959Z,22.40
2023-03-29T14:21:54.174Z,22.95
2023-03-29T14:24:22.850Z,22.10
2023-03-29T14:26:50.768Z,22.51
2023-03-29T14:29:19.853Z,19.71
2023-03-29T14:31:47.523Z,23.17
2023-03-29T14:34:16.060Z,24.21
2023-03-29T14:36:45.404Z,22.72
2023-03-29T14:39:14.243Z,23.62
2023-03-29T14:41:41.899Z,23.57
2023-03-29T14:44:09.619Z,22.62
2023-03-29T14:46:38.973Z,20.98
2023-03-29T14:49:07.286Z,21.78
2023-03-29T14:51:34.906Z,23.95
2023-03-29T14:54:03.199Z,22.87
2023-03-29T14:56:32.561Z,22.40
2023-03-29T14:59:00.600Z,24.50
2023-03-29T15:01:28.293Z,23.38
2023-03-29T15:04:02.745Z,22.18
2023-03-29T15:06:30.835Z,23.33
2023-03-29T15:09:06.056Z,22.54
2023-03-29T15:11:34.957Z,22.68
2023-03-29T15:14:03.838Z,22.32
2023-03-29T15:16:31.899Z,22.86
2023-03-29T15:19:01.456Z,22.24
2023-03-29T15:21:30.189Z,21.00
2023-03-29T15:23:58.340Z,23.24
2023-03-29T15:26:29.036Z,21.78
2023-03-29T15:29:02.988Z,22.79
2023-03-29T15:31:34.652Z,22.36
2023-03-29T15:34:06.346Z,22.34
2023-03-29T15:36:36.049Z,23.61
2023-03-29T15:39:03.993Z,22.47
2023-03-29T15:41:32.205Z,23.02
2023-03-29T15:43:59.845Z,21.90
2023-03-29T15:46:27.969Z,22.03
2023-03-29T15:48:55.791Z,22.60
2023-03-29T15:51:26.782Z,20.58
2023-03-29T15:53:54.442Z,21.64
2023-03-29T15:56:22.942Z,23.62
2023-03-29T15:58:50.917Z,22.36
2023-03-29T16:01:23.746Z,22.88
2023-03-29T16:03:51.967Z,23.52
2023-03-29T16:06:22.231Z,22.26
2023-03-29T16:08:51.443Z,22.04
2023-03-29T16:11:19.039Z,22.00
2023-03-29T16:13:46.767Z,20.73
2023-03-29T16:16:14.497Z,21.15
2023-03-29T16:18:42.292Z,22.24
2023-03-29T16:21:12.453Z,23.82
2023-03-29T16:23:40.714Z,22.59
2023-03-29T16:26:11.812Z,24.02
2023-03-29T16:28:39.494Z,22.48
2023-03-29T16:31:07.213Z,21.76
2023-03-29T16:33:34.853Z,21.70
2023-03-29T16:36:04.555Z,21.39
2023-03-29T16:38:33.749Z,21.97
2023-03-29T16:41:04.126Z,22.91
2023-03-29T16:43:33.158Z,22.71
2023-03-29T16:46:02.306Z,20.21
2023-03-29T16:48:30.202Z,22.51
2023-03-29T16:51:00.891Z,22.14
2023-03-29T16:53:30.248Z,21.42
2023-03-29T16:55:57.921Z,23.74
2023-03-29T16:58:25.793Z,21.54
2023-03-29T17:00:56.944Z,21.91
2023-03-29T17:03:25.956Z,22.56
2023-03-29T17:05:54.577Z,22.17
2023-03-29T17:08:22.505Z,21.88
2023-03-29T17:10:52.827Z,22.65
2023-03-29T17:13:21.193Z,22.66
2023-03-29T17:15:48.820Z,23.46
2023-03-29T17:18:18.027Z,23.15
2023-03-29T17:20:45.848Z,22.78
2023-03-29T17:23:13.530Z,21.96
2023-03-29T17:25:41.172Z,22.83
2023-03-29T17:28:10.695Z,22.52
2023-03-29T17:30:38.375Z,22.63
2023-03-29T17:33:06.162Z,21.97
2023-03-29T17:35:35.196Z,22.42
2023-03-29T17:38:02.883Z,22.20
2023-03-29T17:40:30.488Z,22.85
2023-03-29T17:42:58.155Z,21.00
2023-03-29T17:45:25.788Z,22.04
2023-03-29T17:47:53.451Z,21.05
2023-03-29T17:50:21.590Z,22.33
2023-03-29T17:52:50.707Z,23.19
2023-03-29T17:55:18.641Z,22.21
2023-03-29T17:57:49.773Z,22.48
2023-03-29T18:00:17.797Z,22.26
2023-03-29T18:02:45.908Z,22.22
2023-03-29T18:05:13.751Z,22.43
2023-03-29T18:07:41.424Z,21.61
2023-03-29T18:10:11.266Z,22.11
2023-03-29T18:12:38.918Z,22.74
2023-03-29T18:15:09.536Z,23.20
2023-03-29T18:17:37.222Z,21.92
2023-03-29T18:20:11.550Z,21.38
2023-03-29T18:22:39.488Z,21.76
2023-03-29T18:25:07.768Z,21.80
2023-03-29T18:27:36.945Z,21.27
2023-03-29T18:30:04.897Z,22.13
2023-03-29T18:32:32.598Z,21.50
2023-03-29T18:35:02.217Z,21.14
2023-03-29T18:37:29.946Z,21.56
2023-03-29T18:39:57.556Z,21.95
2023-03-29T18:42:25.194Z,21.64
2023-03-29T18:44:54.201Z,22.19
2023-03-29T18:47:22.195Z,21.74
2023-03-29T18:49:49.809Z,21.44
2023-03-29T18:52:17.460Z,21.66
2023-03-29T18:54:45.105Z,21.07
2023-03-29T18:57:12.825Z,22.35
2023-03-29T18:59:40.791Z,21.85
2023-03-29T19:02:10.724Z,21.56
2023-03-29T19:04:38.365Z,21.65
2023-03-29T19:07:06.744Z,22.11
2023-03-29T19:09:34.360Z,21.27
2023-03-29T19:12:02.020Z,20.81
2023-03-29T19:14:29.736Z,21.39
2023-03-29T19:16:57.342Z,23.35
2023-03-29T19:19:27.151Z,22.95
2023-03-29T19:21:57.630Z,21.27
2023-03-29T19:24:26.884Z,22.20
2023-03-29T19:26:54.511Z,21.61
2023-03-29T19:29:22.154Z,21.47
2023-03-29T19:31:51.797Z,20.76
2023-03-29T19:34:21.028Z,21.95
2023-03-29T19:36:50.120Z,22.17
2023-03-29T19:39:17.730Z,21.55
2023-03-29T19:41:45.307Z,21.84
2023-03-29T19:44:13.708Z,21.16
2023-03-29T19:46:41.716Z,21.40
2023-03-29T19:49:13.552Z,22.21
2023-03-29T19:51:41.291Z,21.46
2023-03-29T19:54:12.704Z,20.86
2023-03-29T19:56:40.622Z,21.50
2023-03-29T19:59:10.897Z,22.25
2023-03-29T20:01:40.565Z,21.18
2023-03-29T20:04:08.670Z,20.48
2023-03-29T20:06:36.462Z,20.87
2023-03-29T20:09:05.182Z,21.88
2023-03-29T20:11:34.175Z,21.85
2023-03-29T20:14:01.817Z,21.58
2023-03-29T20:16:33.048Z,21.62
2023-03-29T20:19:05.878Z,22.42
2023-03-29T20:21:34.258Z,20.73
2023-03-29T20:24:01.897Z,21.54
2023-03-29T20:26:29.495Z,20.36
2023-03-29T20:28:58.473Z,21.26
2023-03-29T20:31:27.361Z,22.21
2023-03-29T20:33:56.986Z,21.32
2023-03-29T20:36:26.658Z,21.96
2023-03-29T20:38:56.142Z,20.10
2023-03-29T20:41:23.899Z,21.97
2023-03-29T20:43:58.292Z,22.68
2023-03-29T20:46:33.186Z,21.05
2023-03-29T20:49:01.323Z,22.07
2023-03-29T20:51:30.350Z,22.10
2023-03-29T20:54:02.528Z,21.56
2023-03-29T20:56:30.614Z,22.78
2023-03-29T20:58:58.859Z,24.15
2023-03-29T21:01:29.610Z,23.15
2023-03-29T21:03:57.335Z,20.74
2023-03-29T21:06:25.274Z,21.45
2023-03-29T21:08:53.443Z,21.37
2023-03-29T21:11:21.235Z,21.76
2023-03-29T21:13:48.818Z,21.55
2023-03-29T21:16:16.553Z,21.60
2023-03-29T21:18:45.564Z,22.49
2023-03-29T21:21:13.173Z,21.24
2023-03-29T21:23:40.810Z,21.58
2023-03-29T21:26:09.260Z,21.73
2023-03-29T21:28:37.509Z,22.62
2023-03-29T21:31:06.284Z,22.38
2023-03-29T21:33:34.219Z,22.03
2023-03-29T21:36:03.347Z,21.57
2023-03-29T21:38:31.166Z,21.83
2023-03-29T21:40:59.653Z,20.67
2023-03-29T21:43:27.340Z,20.77
2023-03-29T21:45:54.964Z,20.96
2023-03-29T21:48:22.663Z,20.49
2023-03-29T21:50:50.873Z,22.10
2023-03-29T21:53:20.083Z,22.55
2023-03-29T21:55:49.110Z,22.18
2023-03-29T21:58:16.994Z,21.70
2023-03-29T22:00:44.845Z,21.58
2023-03-29T22:03:12.632Z,20.29
2023-03-29T22:05:40.570Z,20.06
2023-03-29T22:08:10.200Z,20.62
2023-03-29T22:10:41.269Z,20.96
2023-03-29T22:13:09.244Z,21.24
2023-03-29T22:15:36.997Z,20.89
2023-03-29T22:18:05.099Z,21.71
2023-03-29T22:20:35.608Z,21.47
2023-03-29T22:23:04.735Z,21.67
2023-03-29T22:25:32.431Z,21.74
2023-03-29T22:28:01.440Z,21.85
2023-03-29T22:30:29.134Z,22.56
2023-03-29T22:32:56.816Z,22.22
2023-03-29T22:35:24.481Z,21.46
2023-03-29T22:37:52.081Z,21.77
2023-03-29T22:40:19.759Z,21.33
2023-03-29T22:42:47.406Z,21.87
2023-03-29T22:45:16.619Z,21.04
2023-03-29T22:47:44.464Z,20.81
2023-03-29T22:50:12.401Z,21.78
2023-03-29T22:52:40.031Z,22.80
2023-03-29T22:55:08.434Z,22.47
2023-03-29T22:57:36.279Z,21.84
2023-03-29T23:00:08.560Z,21.52
2023-03-29T23:02:37.741Z,21.11
2023-03-29T23:05:05.582Z,20.93
2023-03-29T23:07:36.308Z,21.33
2023-03-29T23:10:04.833Z,20.91
2023-03-29T23:12:32.478Z,21.18
2023-03-29T23:15:00.143Z,21.05
2023-03-29T23:17:27.934Z,21.05
2023-03-29T23:19:57.041Z,19.88
2023-03-29T23:22:24.867Z,20.47
2023-03-29T23:24:53.351Z,20.68
2023-03-29T23:27:21.016Z,20.51
2023-03-29T23:29:48.613Z,19.97
2023-03-29T23:32:16.607Z,20.19
2023-03-29T23:34:44.477Z,20.51
2023-03-29T23:37:13.485Z,19.59
2023-03-29T23:39:41.562Z,19.90
2023-03-29T23:42:09.205Z,20.57
2023-03-29T23:44:37.574Z,20.41
2023-03-29T23:47:06.138Z,20.35
2023-03-29T23:49:33.908Z,20.49
2023-03-29T23:52:02.588Z,20.90
2023-03-29T23:54:31.860Z,20.93
2023-03-29T23:57:00.192Z,21.65
2023-03-29T23:59:30.613Z,21.09
